Time;durP1;ratioP1;P1;durP2;ratioP2;P2;SDS_P1;SDS_P2;PMS_P1;PMS_P2;Temp;Humidity;BMP_temperature;BMP_pressure;BME280_temperature;BME280_humidity;BME280_pressure;Samples;Min_cycle;Max_cycle;Signal;HPM_P1;HPM_P2
2023/05/28 00:02:59;;;;;;;4.10;2.03;;;;;;;11.43;52.64;100272.91;10505326;28;20071;-58
2023/05/28 00:08:02;;;;;;;6.55;2.22;;;;;;;11.35;53.56;100275.13;10512033;28;20415;-58
2023/05/28 00:13:03;;;;;;;3.28;1.92;;;;;;;11.40;53.24;100279.16;10516246;28;20063;-58
2023/05/28 00:18:05;;;;;;;3.78;1.83;;;;;;;11.13;53.71;100281.56;10513845;28;20056;-58
2023/05/28 00:23:07;;;;;;;4.63;2.22;;;;;;;10.82;54.16;100276.34;10516405;28;20411;-58
2023/05/28 00:28:09;;;;;;;4.10;1.90;;;;;;;10.95;54.33;100277.31;10516018;28;20052;-58
2023/05/28 00:33:11;;;;;;;4.47;1.63;;;;;;;11.03;54.29;100272.50;10480039;28;20492;-58
2023/05/28 00:38:13;;;;;;;4.75;2.03;;;;;;;11.01;54.22;100271.75;10513226;28;20459;-58
2023/05/28 00:43:16;;;;;;;3.22;1.80;;;;;;;11.05;54.39;100267.25;10477169;28;20052;-57
2023/05/28 00:48:18;;;;;;;6.00;2.05;;;;;;;10.99;54.47;100267.56;10492961;28;20052;-59
2023/05/28 00:53:20;;;;;;;4.05;2.00;;;;;;;10.89;54.65;100263.75;10512392;28;20031;-58
2023/05/28 00:58:24;;;;;;;3.92;1.80;;;;;;;10.81;55.20;100264.16;10512889;28;20055;-58
2023/05/28 01:03:26;;;;;;;4.88;2.00;;;;;;;10.74;55.00;100262.84;10510108;28;20431;-57
2023/05/28 01:08:28;;;;;;;4.03;2.00;;;;;;;10.78;54.99;100264.34;10513384;28;20048;-58
2023/05/28 01:13:32;;;;;;;3.50;1.77;;;;;;;10.57;55.04;100270.75;10511807;28;20044;-58
2023/05/28 01:18:34;;;;;;;4.47;1.90;;;;;;;10.37;55.33;100265.75;10509088;28;20059;-58
2023/05/28 01:23:44;;;;;;;4.15;2.10;;;;;;;10.19;56.15;100269.34;10486981;28;20048;-58
2023/05/28 01:28:48;;;;;;;8.77;2.08;;;;;;;9.82;55.94;100269.56;10490300;28;20044;-58
2023/05/28 01:33:51;;;;;;;3.10;1.77;;;;;;;9.90;56.12;100265.63;10493284;28;20250;-58
2023/05/28 01:38:58;;;;;;;4.05;1.95;;;;;;;9.92;56.01;100262.94;10508478;28;20051;-58
2023/05/28 01:44:03;;;;;;;3.40;2.00;;;;;;;10.04;56.09;100263.16;10491076;28;20456;-58
2023/05/28 01:49:06;;;;;;;3.38;1.80;;;;;;;9.96;55.79;100259.25;10490487;28;20048;-58
2023/05/28 01:54:08;;;;;;;4.22;2.00;;;;;;;9.69;56.40;100261.50;10509569;28;20736;-58
2023/05/28 01:59:10;;;;;;;5.53;1.80;;;;;;;9.87;56.69;100257.94;10476038;28;20916;-58
2023/05/28 02:04:12;;;;;;;4.65;2.13;;;;;;;10.06;56.35;100247.38;10497948;28;20050;-58
2023/05/28 02:09:14;;;;;;;4.18;2.00;;;;;;;9.70;56.30;100254.53;10486765;28;20504;-58
2023/05/28 02:14:16;;;;;;;3.55;1.92;;;;;;;9.29;56.93;100253.94;10519723;28;20044;-58
2023/05/28 02:19:18;;;;;;;3.78;1.95;;;;;;;9.41;57.35;100251.59;10486084;28;20051;-58
2023/05/28 02:24:20;;;;;;;6.30;2.28;;;;;;;9.56;57.16;100247.38;10517797;28;20059;-57
2023/05/28 02:29:22;;;;;;;3.13;2.00;;;;;;;9.41;57.08;100242.91;10516600;28;20047;-58
2023/05/28 02:34:28;;;;;;;2.50;1.50;;;;;;;9.13;57.43;100243.44;10483997;28;20109;-58
2023/05/28 02:39:31;;;;;;;4.88;2.13;;;;;;;9.24;57.61;100241.13;10499678;28;20988;-58
2023/05/28 02:44:33;;;;;;;3.70;1.90;;;;;;;9.38;57.39;100237.84;10494261;28;20459;-59
2023/05/28 02:49:35;;;;;;;7.32;1.67;;;;;;;9.43;57.39;100236.69;10513452;28;20516;-58
2023/05/28 02:54:37;;;;;;;4.05;1.92;;;;;;;9.43;57.23;100241.91;10498805;28;20044;-58
2023/05/28 02:59:39;;;;;;;4.35;2.00;;;;;;;9.41;57.35;100238.53;10495497;28;20055;-58
2023/05/28 03:04:41;;;;;;;3.20;1.73;;;;;;;9.40;57.21;100239.44;10494822;28;20040;-58
2023/05/28 03:09:43;;;;;;;5.55;2.17;;;;;;;9.30;57.41;100235.59;10474030;28;20486;-58
2023/05/28 03:14:45;;;;;;;3.92;1.88;;;;;;;9.26;57.36;100234.06;10490328;28;20159;-58
2023/05/28 03:19:47;;;;;;;3.92;1.90;;;;;;;9.25;57.37;100234.13;10474378;28;20048;-58
2023/05/28 03:24:52;;;;;;;5.05;2.03;;;;;;;9.18;57.48;100230.97;10508040;28;20799;-58
2023/05/28 03:29:56;;;;;;;2.75;1.60;;;;;;;9.20;57.29;100233.53;10489336;28;20081;-57
2023/05/28 03:35:08;;;;;;;2.92;1.58;;;;;;;9.22;57.47;100236.91;10491430;28;20051;-58
2023/05/28 03:40:11;;;;;;;3.45;1.90;;;;;;;9.21;57.26;100236.06;10506016;28;20517;-58
2023/05/28 03:45:13;;;;;;;3.17;1.67;;;;;;;9.24;57.35;100232.47;10488999;28;20412;-58
2023/05/28 03:50:15;;;;;;;2.35;1.60;;;;;;;9.25;56.78;100237.59;10488209;28;20547;-58
2023/05/28 03:55:17;;;;;;;3.78;1.83;;;;;;;9.10;57.36;100242.72;10506995;28;20056;-58
2023/05/28 04:00:19;;;;;;;3.80;1.70;;;;;;;9.14;57.40;100236.41;10507460;28;20247;-58
2023/05/28 04:05:21;;;;;;;4.30;2.00;;;;;;;9.15;57.66;100238.97;10489012;28;20048;-58
2023/05/28 04:10:23;;;;;;;4.60;2.15;;;;;;;9.39;57.23;100247.34;10507133;28;20407;-58
2023/05/28 04:15:25;;;;;;;5.43;2.35;;;;;;;10.29;56.51;100245.25;10474131;28;20048;-58
2023/05/28 04:20:27;;;;;;;4.22;2.00;;;;;;;12.45;53.04;100237.00;10491261;28;20389;-58
2023/05/28 04:25:29;;;;;;;4.93;1.95;;;;;;;14.33;49.73;100231.34;10508917;28;20047;-59
2023/05/28 04:30:32;;;;;;;4.45;2.15;;;;;;;16.08;46.72;100232.25;10490170;28;20400;-58
2023/05/28 04:35:35;;;;;;;3.67;1.83;;;;;;;17.49;44.72;100226.09;10489365;28;20039;-59
2023/05/28 04:40:37;;;;;;;3.63;1.80;;;;;;;18.17;42.53;100229.03;10504641;28;20032;-59
2023/05/28 04:45:39;;;;;;;3.20;1.80;;;;;;;19.03;41.15;100226.66;10489688;28;20411;-59
2023/05/28 04:50:41;;;;;;;4.50;2.10;;;;;;;19.77;40.21;100226.88;10473413;28;20080;-58
2023/05/28 04:55:44;;;;;;;3.72;2.20;;;;;;;20.81;38.56;100217.72;10506634;28;20035;-59
2023/05/28 05:00:47;;;;;;;3.85;2.13;;;;;;;21.55;37.30;100214.78;10493216;28;20094;-59
2023/05/28 05:05:49;;;;;;;3.50;2.08;;;;;;;22.02;36.69;100210.78;10508494;28;20044;-59
2023/05/28 05:10:51;;;;;;;3.70;2.05;;;;;;;22.38;35.55;100209.63;10495403;28;20044;-59
2023/05/28 05:15:54;;;;;;;4.05;2.28;;;;;;;22.53;35.07;100213.38;10514471;28;20109;-59
2023/05/28 05:20:57;;;;;;;4.45;2.30;;;;;;;22.71;34.37;100210.59;10480978;28;20083;-59
2023/05/28 05:25:59;;;;;;;3.75;1.88;;;;;;;21.99;33.93;100215.56;10514630;28;20089;-59
2023/05/28 05:31:01;;;;;;;3.30;1.77;;;;;;;19.46;36.89;100229.72;10514003;28;20053;-59
2023/05/28 05:36:03;;;;;;;4.18;1.85;;;;;;;17.71;39.26;100237.41;10494489;28;20063;-59
2023/05/28 05:41:18;;;;;;;3.72;1.90;;;;;;;16.57;40.98;100239.00;10480358;28;20044;-59
2023/05/28 05:46:23;;;;;;;4.35;1.90;;;;;;;15.99;42.12;100240.88;10479278;28;20824;-58
2023/05/28 05:51:25;;;;;;;4.32;1.90;;;;;;;15.62;42.77;100244.66;10495383;28;20055;-63
2023/05/28 05:56:27;;;;;;;4.75;2.40;;;;;;;15.41;43.76;100243.56;10496173;28;20040;-59
2023/05/28 06:01:30;;;;;;;4.32;2.40;;;;;;;15.18;44.30;100247.94;10495508;28;20139;-59
2023/05/28 06:06:32;;;;;;;3.92;1.85;;;;;;;15.14;44.87;100243.00;10493261;28;20070;-59
2023/05/28 06:11:47;;;;;;;3.85;2.22;;;;;;;15.16;45.21;100246.38;10512607;28;20535;-59
2023/05/28 06:16:50;;;;;;;7.25;2.30;;;;;;;15.26;45.48;100237.69;10495113;28;20506;-58
2023/05/28 06:21:52;;;;;;;3.42;1.83;;;;;;;15.57;45.64;100241.50;10510456;28;20047;-59
2023/05/28 06:26:54;;;;;;;3.80;1.90;;;;;;;15.73;44.82;100235.94;10494733;28;20103;-59
2023/05/28 06:31:56;;;;;;;3.85;1.92;;;;;;;15.82;44.63;100235.22;10510021;28;20048;-59
2023/05/28 06:36:58;;;;;;;4.63;2.15;;;;;;;15.95;44.56;100231.53;10510133;28;20039;-60
2023/05/28 06:42:00;;;;;;;5.32;2.13;;;;;;;16.27;44.42;100228.16;10471358;28;20048;-59
2023/05/28 06:47:12;;;;;;;3.78;2.08;;;;;;;16.65;43.94;100231.31;10464984;28;20083;-60
2023/05/28 06:52:15;;;;;;;4.43;2.08;;;;;;;16.32;44.06;100226.88;10499632;28;20047;-59
2023/05/28 06:57:17;;;;;;;6.00;2.13;;;;;;;16.45;43.96;100229.38;10483145;28;20136;-59
2023/05/28 07:02:38;;;;;;;4.13;1.83;;;;;;;16.67;42.75;100224.09;10501702;28;20102;-60
2023/05/28 07:07:59;;;;;;;4.75;2.00;;;;;;;16.62;43.32;100224.47;10486987;28;20592;-59
2023/05/28 07:13:01;;;;;;;4.57;1.65;;;;;;;17.23;42.07;100222.09;10502987;28;20048;-59
2023/05/28 07:18:04;;;;;;;3.78;1.88;;;;;;;17.36;41.74;100231.59;10488154;28;20242;-59
2023/05/28 07:23:06;;;;;;;5.35;2.17;;;;;;;17.71;41.07;100225.97;10484917;28;20079;-59
2023/05/28 07:28:08;;;;;;;5.22;2.05;;;;;;;18.86;40.00;100234.41;10505888;28;20139;-59
2023/05/28 07:33:12;;;;;;;4.47;2.50;;;;;;;20.24;38.49;100221.47;10501064;28;20036;-59
2023/05/28 07:38:15;;;;;;;3.30;1.80;;;;;;;21.84;35.81;100213.47;10502257;28;20039;-59
2023/05/28 07:43:20;;;;;;;4.75;2.08;;;;;;;22.52;35.87;100214.34;10479045;28;20036;-59
2023/05/28 07:48:24;;;;;;;3.13;1.63;;;;;;;22.60;34.75;100211.72;10485079;28;20134;-59
2023/05/28 07:53:36;;;;;;;3.45;1.70;;;;;;;23.39;34.23;100211.25;10502995;28;20044;-59
2023/05/28 07:58:44;;;;;;;3.67;1.70;;;;;;;24.57;32.44;100208.66;10487098;28;20132;-59
2023/05/28 08:03:50;;;;;;;4.22;1.77;;;;;;;24.69;32.47;100201.91;10486830;28;20055;-59
2023/05/28 08:08:56;;;;;;;3.20;1.60;;;;;;;25.17;31.95;100198.94;10503890;28;20970;-60
2023/05/28 08:13:58;;;;;;;3.33;1.70;;;;;;;25.70;31.12;100196.19;10483879;28;20040;-59
2023/05/28 08:19:01;;;;;;;3.45;1.70;;;;;;;25.24;31.08;100193.72;10472652;28;20121;-59
2023/05/28 08:24:04;;;;;;;3.90;1.70;;;;;;;25.57;30.34;100187.94;10472948;28;20044;-60
2023/05/28 08:29:06;;;;;;;3.22;1.60;;;;;;;25.57;30.48;100182.56;10508045;28;20056;-60
2023/05/28 08:34:14;;;;;;;3.13;1.70;;;;;;;25.98;29.57;100182.22;10479674;28;20048;-60
2023/05/28 08:39:18;;;;;;;4.22;1.90;;;;;;;25.12;30.05;100173.75;10494296;28;20480;-60
2023/05/28 08:44:21;;;;;;;3.35;1.70;;;;;;;25.33;29.86;100172.06;10488492;28;20135;-60
2023/05/28 08:49:34;;;;;;;3.17;1.70;;;;;;;25.22;27.23;100168.97;10486502;28;21336;-59
2023/05/28 08:54:39;;;;;;;3.25;1.60;;;;;;;25.36;29.12;100158.34;10477794;28;20056;-59
2023/05/28 08:59:44;;;;;;;4.07;1.80;;;;;;;25.62;29.16;100157.91;10511633;28;20047;-59
2023/05/28 09:04:46;;;;;;;3.63;1.80;;;;;;;25.92;29.00;100156.13;10511231;28;20060;-59
2023/05/28 09:09:50;;;;;;;5.30;1.67;;;;;;;25.66;29.09;100149.34;10474081;28;20044;-59
2023/05/28 09:14:53;;;;;;;3.55;1.80;;;;;;;26.37;28.68;100145.19;10487185;28;20040;-59
2023/05/28 09:19:59;;;;;;;3.80;1.77;;;;;;;25.88;28.82;100136.88;10478478;28;20080;-59
2023/05/28 09:25:06;;;;;;;4.03;1.40;;;;;;;26.01;28.50;100136.25;10492978;28;20075;-59
2023/05/28 09:30:20;;;;;;;4.20;1.60;;;;;;;26.14;28.51;100139.94;10491209;28;20048;-59
2023/05/28 09:35:25;;;;;;;4.72;1.88;;;;;;;25.99;28.25;100130.25;10509569;28;20044;-59
2023/05/28 09:40:26;;;;;;;2.42;1.40;;;;;;;26.30;28.48;100134.38;10510780;28;20051;-59
2023/05/28 09:45:29;;;;;;;5.57;1.70;;;;;;;26.61;28.03;100128.78;10489955;28;20205;-59
2023/05/28 09:50:30;;;;;;;4.35;1.60;;;;;;;26.90;28.54;100115.25;10507520;28;20059;-59
2023/05/28 09:55:35;;;;;;;2.80;1.52;;;;;;;26.65;27.63;100116.63;10511774;28;20040;-60
2023/05/28 10:00:52;;;;;;;3.17;1.60;;;;;;;26.21;27.89;100114.06;10507088;28;20044;-60
2023/05/28 10:06:03;;;;;;;4.72;1.50;;;;;;;26.10;26.75;100108.34;10510553;28;20051;-59
2023/05/28 10:11:12;;;;;;;3.33;1.60;;;;;;;26.01;27.71;100104.09;10506940;28;20059;-59
2023/05/28 10:16:15;;;;;;;3.67;1.70;;;;;;;25.37;28.46;100109.13;10511260;28;20051;-59
2023/05/28 10:21:19;;;;;;;2.72;1.63;;;;;;;25.90;27.79;100100.00;10507755;28;20154;-59
2023/05/28 10:26:21;;;;;;;3.47;1.40;;;;;;;25.73;28.68;100099.34;10501887;28;20035;-59
2023/05/28 10:31:24;;;;;;;2.22;1.27;;;;;;;26.19;28.13;100102.69;10502499;28;20407;-59
2023/05/28 10:36:26;;;;;;;3.42;1.60;;;;;;;25.92;27.75;100099.84;10508324;28;20047;-59
2023/05/28 10:41:33;;;;;;;3.08;1.50;;;;;;;25.43;27.01;100092.31;10504763;28;20051;-59
2023/05/28 10:46:39;;;;;;;5.93;1.70;;;;;;;24.88;27.52;100094.47;10506230;28;20098;-59
2023/05/28 10:52:00;;;;;;;3.38;1.65;;;;;;;24.63;27.14;100084.94;10480462;28;20559;-59
2023/05/28 10:57:19;;;;;;;2.03;1.38;;;;;;;24.32;26.16;100078.78;10509692;28;20052;-59
2023/05/28 11:02:24;;;;;;;3.78;1.80;;;;;;;24.36;28.06;100082.78;10506857;28;20036;-59
2023/05/28 11:07:30;;;;;;;3.25;1.70;;;;;;;24.29;27.72;100086.16;10503837;28;20059;-59
2023/05/28 11:12:36;;;;;;;2.75;1.60;;;;;;;24.33;28.97;100073.25;10500844;28;20051;-59
2023/05/28 11:17:44;;;;;;;2.60;1.50;;;;;;;24.15;29.96;100075.38;10506172;28;20044;-59
2023/05/28 11:22:48;;;;;;;;;;;;;;;24.19;29.10;100074.84;10505504;28;20506;-59
2023/05/28 11:27:50;;;;;;;4.25;1.70;;;;;;;24.36;29.52;100072.09;10506199;28;20447;-59
2023/05/28 11:32:54;;;;;;;2.25;1.40;;;;;;;24.27;28.51;100066.78;10505560;28;20052;-59
2023/05/28 11:38:00;;;;;;;3.80;1.60;;;;;;;24.35;28.33;100049.03;10506752;28;20040;-59
2023/05/28 11:43:04;;;;;;;3.35;1.55;;;;;;;24.71;28.86;100055.47;10504180;28;21054;-59
2023/05/28 11:48:12;;;;;;;4.90;1.55;;;;;;;24.78;28.62;100062.63;10502644;28;20071;-59
2023/05/28 11:53:14;;;;;;;3.30;1.60;;;;;;;24.72;26.34;100066.00;10486246;28;20048;-59
2023/05/28 11:58:16;;;;;;;3.33;1.73;;;;;;;24.91;26.74;100052.16;10480007;28;20032;-59
2023/05/28 12:03:18;;;;;;;2.75;1.55;;;;;;;25.04;27.26;100047.00;10508025;28;20044;-59
2023/05/28 12:08:20;;;;;;;4.60;1.90;;;;;;;24.68;27.43;100045.09;10512846;28;20547;-59
2023/05/28 12:13:23;;;;;;;6.68;1.80;;;;;;;24.66;27.56;100047.13;10512063;28;20044;-59
2023/05/28 12:18:27;;;;;;;3.92;1.55;;;;;;;24.77;26.80;100038.72;10495535;28;20044;-59
2023/05/28 12:23:29;;;;;;;2.83;1.48;;;;;;;25.00;27.01;100031.47;10512431;28;20055;-59
2023/05/28 12:28:34;;;;;;;2.95;1.63;;;;;;;24.98;26.75;100031.66;10513600;28;20044;-59
2023/05/28 12:33:36;;;;;;;3.25;1.75;;;;;;;25.15;26.24;100037.69;10507240;28;20051;-59
2023/05/28 12:38:38;;;;;;;3.25;1.60;;;;;;;25.19;26.17;100044.34;10493696;28;20048;-59
2023/05/28 12:43:40;;;;;;;3.60;1.70;;;;;;;25.25;26.06;100030.22;10511224;28;20048;-59
2023/05/28 12:48:42;;;;;;;2.67;1.45;;;;;;;25.30;26.17;100024.34;10510387;28;20522;-59
2023/05/28 12:53:44;;;;;;;3.85;1.80;;;;;;;25.57;26.16;100026.41;10510121;28;20543;-59
2023/05/28 12:58:46;;;;;;;5.07;1.83;;;;;;;25.58;25.50;100030.75;10512224;28;20048;-59
2023/05/28 13:03:50;;;;;;;4.25;2.00;;;;;;;25.26;25.51;100018.53;10510413;28;20055;-59
2023/05/28 13:08:52;;;;;;;3.20;1.80;;;;;;;25.16;25.26;100014.44;10510553;28;20059;-60
2023/05/28 13:13:54;;;;;;;3.53;1.80;;;;;;;25.08;25.35;100012.69;10491750;28;20420;-59
2023/05/28 13:18:56;;;;;;;2.88;1.63;;;;;;;25.03;25.15;100007.03;10511233;28;20055;-59
2023/05/28 13:24:00;;;;;;;3.42;1.70;;;;;;;25.08;25.06;100004.66;10491702;28;20048;-59
2023/05/28 13:29:06;;;;;;;4.20;1.85;;;;;;;25.30;24.94;99998.41;10511056;28;20044;-59
2023/05/28 13:34:08;;;;;;;3.65;1.88;;;;;;;25.29;24.80;100003.91;10508873;28;20036;-59
2023/05/28 13:39:10;;;;;;;3.53;1.88;;;;;;;25.37;24.82;99993.16;10510399;28;20063;-59
2023/05/28 13:44:13;;;;;;;3.13;1.60;;;;;;;25.37;24.98;99985.97;10508155;28;20039;-59
2023/05/28 13:49:15;;;;;;;3.50;1.60;;;;;;;25.46;24.13;99984.84;10509492;28;20071;-59
2023/05/28 13:54:17;;;;;;;3.50;1.70;;;;;;;25.71;24.82;99975.47;10507401;28;20485;-59
2023/05/28 13:59:19;;;;;;;3.10;1.60;;;;;;;25.57;24.87;99984.38;10479778;28;20048;-59
2023/05/28 14:04:21;;;;;;;3.13;1.83;;;;;;;25.32;25.10;99984.81;10485957;28;20043;-59
2023/05/28 14:09:23;;;;;;;3.60;1.98;;;;;;;25.56;25.32;99969.34;10510672;28;20044;-59
2023/05/28 14:14:25;;;;;;;3.97;2.00;;;;;;;25.55;25.00;99970.34;10491514;28;20055;-59
2023/05/28 14:19:29;;;;;;;3.58;1.70;;;;;;;25.72;25.28;99971.78;10510544;28;20051;-59
2023/05/28 14:24:31;;;;;;;3.38;1.88;;;;;;;25.89;25.61;99959.00;10507383;28;20051;-59
2023/05/28 14:29:34;;;;;;;4.40;1.85;;;;;;;26.02;25.38;99953.81;10510776;28;20059;-60
2023/05/28 14:34:36;;;;;;;3.08;1.50;;;;;;;25.99;25.46;99958.72;10507324;28;20063;-59
2023/05/28 14:39:38;;;;;;;3.90;1.77;;;;;;;25.83;25.46;99949.84;10475075;28;20048;-59
2023/05/28 14:44:40;;;;;;;4.13;1.85;;;;;;;25.75;25.13;99941.13;10506792;28;20064;-59
2023/05/28 14:49:44;;;;;;;3.83;1.70;;;;;;;25.63;25.53;99951.47;10508574;28;20927;-59
2023/05/28 14:54:46;;;;;;;4.60;1.88;;;;;;;25.65;25.65;99949.44;10502763;28;20043;-59
2023/05/28 14:59:49;;;;;;;3.70;1.90;;;;;;;25.45;26.03;99947.53;10507054;28;20051;-59
2023/05/28 15:04:51;;;;;;;3.30;1.73;;;;;;;25.48;26.10;99937.31;10497314;28;20514;-59
2023/05/28 15:09:52;;;;;;;3.30;1.90;;;;;;;25.55;25.97;99930.16;10496249;28;20052;-59
2023/05/28 15:14:54;;;;;;;4.22;1.90;;;;;;;25.58;26.27;99923.59;10496328;28;20040;-59
2023/05/28 15:19:57;;;;;;;3.78;2.00;;;;;;;25.50;25.92;99924.56;10482530;28;20044;-59
2023/05/28 15:24:59;;;;;;;3.47;1.90;;;;;;;25.86;26.06;99919.19;10503631;28;20921;-59
2023/05/28 15:30:03;;;;;;;3.20;1.80;;;;;;;25.89;25.77;99921.50;10503558;28;20048;-59
2023/05/28 15:35:06;;;;;;;4.20;1.60;;;;;;;25.80;25.25;99910.06;10503084;28;20062;-59
2023/05/28 15:40:10;;;;;;;3.83;1.65;;;;;;;25.72;26.54;99907.50;10505420;28;20044;-59
2023/05/28 15:45:12;;;;;;;3.10;1.67;;;;;;;25.75;26.28;99909.78;10488269;28;21085;-59
2023/05/28 15:50:16;;;;;;;3.25;1.70;;;;;;;25.71;26.39;99905.81;10486701;28;20055;-59
2023/05/28 15:55:19;;;;;;;4.22;2.03;;;;;;;25.65;26.96;99909.25;10497494;28;20527;-60
2023/05/28 16:00:21;;;;;;;2.67;1.55;;;;;;;25.72;26.15;99901.31;10501914;28;20047;-60
2023/05/28 16:05:24;;;;;;;4.63;1.60;;;;;;;25.63;25.30;99902.47;10504648;28;20043;-59
2023/05/28 16:10:26;;;;;;;2.83;1.55;;;;;;;25.61;25.54;99899.13;10497576;28;20567;-60
2023/05/28 16:15:32;;;;;;;3.78;1.75;;;;;;;25.48;24.44;99898.97;10497061;28;20055;-59
2023/05/28 16:20:35;;;;;;;2.80;1.52;;;;;;;25.41;25.72;99903.41;10478297;28;20915;-59
2023/05/28 16:25:37;;;;;;;5.00;1.90;;;;;;;25.35;25.99;99896.97;10500388;28;20326;-59
2023/05/28 16:30:40;;;;;;;2.65;1.48;;;;;;;25.37;25.76;99894.91;10493110;28;20044;-59
2023/05/28 16:35:42;;;;;;;4.32;1.80;;;;;;;25.37;26.23;99891.41;10500626;28;20051;-60
2023/05/28 16:40:44;;;;;;;3.38;1.70;;;;;;;25.34;26.77;99898.00;10497824;28;20052;-59
2023/05/28 16:45:47;;;;;;;2.83;1.55;;;;;;;25.18;26.58;99890.13;10493646;28;20226;-59
2023/05/28 16:50:49;;;;;;;4.88;2.00;;;;;;;25.00;26.58;99889.66;10502500;28;20150;-60
2023/05/28 16:55:55;;;;;;;3.33;1.70;;;;;;;24.97;26.61;99892.72;10508050;28;20047;-59
2023/05/28 17:00:57;;;;;;;3.17;1.52;;;;;;;25.01;26.90;99900.19;10504997;28;20162;-60
2023/05/28 17:05:59;;;;;;;4.07;1.90;;;;;;;24.96;26.85;99893.72;10486230;28;20151;-60
2023/05/28 17:11:01;;;;;;;3.97;1.70;;;;;;;24.75;27.09;99894.47;10505554;28;20043;-60
2023/05/28 17:16:03;;;;;;;4.50;1.73;;;;;;;24.55;27.13;99892.47;10490072;28;20044;-60
2023/05/28 17:21:05;;;;;;;2.45;1.50;;;;;;;24.51;27.07;99893.84;10502337;28;20048;-60
2023/05/28 17:26:07;;;;;;;2.63;1.50;;;;;;;24.47;27.61;99897.91;10488774;28;20044;-59
2023/05/28 17:31:09;;;;;;;2.03;1.27;;;;;;;24.40;27.55;99897.78;10502147;28;20510;-60
2023/05/28 17:36:11;;;;;;;3.00;1.67;;;;;;;24.29;27.39;99901.72;10506471;28;20134;-60
2023/05/28 17:41:13;;;;;;;2.95;1.40;;;;;;;24.36;27.18;99901.00;10505618;28;20047;-60
2023/05/28 17:46:16;;;;;;;2.05;1.25;;;;;;;24.20;27.35;99900.16;10509019;28;20602;-59
2023/05/28 17:51:18;;;;;;;2.30;1.17;;;;;;;23.97;27.86;99912.63;10497477;28;20516;-60
2023/05/28 17:56:22;;;;;;;2.90;1.40;;;;;;;23.63;27.74;99917.53;10502635;28;20051;-60
2023/05/28 18:01:24;;;;;;;2.50;1.40;;;;;;;23.61;28.14;99914.22;10485261;28;20493;-60
2023/05/28 18:06:26;;;;;;;2.28;1.48;;;;;;;23.43;28.35;99918.97;10500439;28;20044;-60
2023/05/28 18:11:28;;;;;;;2.45;1.25;;;;;;;23.22;28.41;99927.53;10503195;28;20067;-60
2023/05/28 18:16:30;;;;;;;3.28;1.45;;;;;;;22.96;28.89;99921.63;10507781;28;20051;-60
2023/05/28 18:21:32;;;;;;;3.30;1.48;;;;;;;22.79;29.14;99927.13;10501768;28;20051;-60
2023/05/28 18:26:35;;;;;;;3.15;1.70;;;;;;;22.63;29.06;99931.47;10508006;28;20036;-60
2023/05/28 18:31:39;;;;;;;2.47;1.30;;;;;;;22.44;29.28;99937.16;10503446;28;20045;-60
2023/05/28 18:36:41;;;;;;;3.90;1.42;;;;;;;22.20;29.60;99937.16;10507706;28;20067;-60
2023/05/28 18:41:45;;;;;;;3.58;1.40;;;;;;;21.90;30.22;99938.56;10507979;28;20044;-60
2023/05/28 18:46:47;;;;;;;3.00;1.35;;;;;;;21.65;30.75;99939.53;10509747;28;20048;-60
2023/05/28 18:51:49;;;;;;;2.30;1.40;;;;;;;21.57;30.93;99949.31;10511136;28;20511;-60
2023/05/28 18:56:51;;;;;;;3.67;1.50;;;;;;;21.34;31.35;99954.38;10510351;28;20517;-60
2023/05/28 19:01:53;;;;;;;3.05;1.60;;;;;;;21.12;31.33;99962.88;10511190;28;20044;-60
2023/05/28 19:06:55;;;;;;;3.42;1.80;;;;;;;20.98;31.33;99974.09;10491840;28;20047;-60
2023/05/28 19:11:57;;;;;;;3.40;1.50;;;;;;;20.78;31.76;99965.50;10509858;28;20543;-59
2023/05/28 19:16:58;;;;;;;7.55;1.50;;;;;;;20.50;32.35;99974.53;10484721;28;20044;-60
2023/05/28 19:22:01;;;;;;;2.80;1.52;;;;;;;20.27;32.70;99979.47;10511229;28;20130;-59
2023/05/28 19:27:03;;;;;;;3.20;1.50;;;;;;;20.00;32.84;99982.22;10510203;28;20499;-60
2023/05/28 19:32:05;;;;;;;4.00;1.60;;;;;;;19.80;33.62;99993.06;10508430;28;20044;-60
2023/05/28 19:37:09;;;;;;;3.40;1.70;;;;;;;19.64;34.31;100011.44;10508535;28;20499;-60
2023/05/28 19:42:11;;;;;;;2.88;1.50;;;;;;;19.51;34.71;100018.91;10510193;28;20291;-59
2023/05/28 19:47:13;;;;;;;3.85;1.67;;;;;;;19.38;35.30;100025.38;10508114;28;20048;-59
2023/05/28 19:52:15;;;;;;;4.55;1.63;;;;;;;19.23;35.72;100029.50;10510034;28;20545;-59
2023/05/28 19:57:16;;;;;;;2.70;1.52;;;;;;;19.15;36.11;100039.97;10508761;28;20932;-59
2023/05/28 20:02:24;;;;;;;3.42;1.60;;;;;;;19.10;36.44;100044.03;10507554;28;20067;-59
2023/05/28 20:07:26;;;;;;;5.05;1.50;;;;;;;18.91;36.76;100047.50;10509689;28;20045;-59
2023/05/28 20:12:29;;;;;;;3.08;1.52;;;;;;;18.77;37.28;100050.59;10506549;28;20052;-59
2023/05/28 20:17:32;;;;;;;3.38;1.70;;;;;;;18.65;37.27;100062.31;10489790;28;20048;-59
2023/05/28 20:22:34;;;;;;;4.95;1.50;;;;;;;18.44;37.80;100064.28;10492427;28;20663;-59
2023/05/28 20:27:38;;;;;;;3.38;1.70;;;;;;;18.07;38.51;100074.63;10497793;28;20040;-59
2023/05/28 20:32:40;;;;;;;3.03;1.60;;;;;;;17.69;39.11;100072.69;10515117;28;20488;-59
2023/05/28 20:37:45;;;;;;;4.00;1.95;;;;;;;17.59;39.68;100084.19;10515444;28;20130;-59
2023/05/28 20:42:47;;;;;;;3.80;1.90;;;;;;;17.40;39.94;100087.59;10514636;28;20055;-59
2023/05/28 20:47:49;;;;;;;2.97;1.70;;;;;;;17.30;40.68;100083.19;10515630;28;20439;-59
2023/05/28 20:52:50;;;;;;;3.75;1.83;;;;;;;17.20;40.82;100098.97;10495112;28;20063;-59
2023/05/28 20:57:54;;;;;;;3.47;1.88;;;;;;;17.04;41.49;100101.22;10495730;28;20485;-59
2023/05/28 21:02:57;;;;;;;3.92;1.98;;;;;;;16.92;41.72;100102.25;10511020;28;20055;-59
2023/05/28 21:07:59;;;;;;;3.63;1.90;;;;;;;16.34;42.52;100103.53;10513220;28;20427;-59
2023/05/28 21:13:00;;;;;;;4.95;1.98;;;;;;;16.12;43.17;100112.31;10513248;28;20061;-59
2023/05/28 21:18:02;;;;;;;3.95;1.90;;;;;;;15.96;43.67;100122.41;10512970;28;20059;-60
2023/05/28 21:23:04;;;;;;;3.20;1.73;;;;;;;15.87;44.23;100119.66;10513176;28;20543;-58
2023/05/28 21:28:06;;;;;;;4.43;2.03;;;;;;;15.90;44.26;100124.69;10510950;28;20051;-58
2023/05/28 21:33:08;;;;;;;4.65;1.63;;;;;;;15.92;44.14;100134.16;10510989;28;20044;-59
2023/05/28 21:38:10;;;;;;;2.92;1.80;;;;;;;15.99;44.33;100138.00;10494009;28;20412;-59
2023/05/28 21:43:12;;;;;;;4.10;1.80;;;;;;;15.97;44.49;100142.56;10512044;28;20044;-58
2023/05/28 21:48:15;;;;;;;4.22;1.95;;;;;;;15.86;44.99;100142.56;10512218;28;20570;-59
2023/05/28 21:53:17;;;;;;;4.35;2.08;;;;;;;15.80;45.14;100143.03;10511671;28;20050;-59
2023/05/28 21:58:18;;;;;;;5.40;2.10;;;;;;;15.74;45.47;100143.50;10507349;28;20543;-58
2023/05/28 22:03:20;;;;;;;6.45;2.00;;;;;;;15.67;45.77;100142.31;10493552;28;20051;-59
2023/05/28 22:08:22;;;;;;;5.60;1.90;;;;;;;15.43;46.28;100150.25;10506084;28;20457;-58
2023/05/28 22:13:24;;;;;;;3.15;1.85;;;;;;;15.48;46.10;100144.66;10511488;28;20044;-58
2023/05/28 22:18:26;;;;;;;4.28;2.10;;;;;;;15.51;46.37;100140.97;10504749;28;20158;-59
2023/05/28 22:23:28;;;;;;;3.60;1.80;;;;;;;15.35;46.86;100142.09;10492796;28;20089;-58
2023/05/28 22:28:30;;;;;;;4.13;1.73;;;;;;;15.28;46.80;100150.59;10492794;28;20057;-58
2023/05/28 22:33:33;;;;;;;5.07;1.80;;;;;;;15.21;46.85;100149.38;10509981;28;20036;-59
2023/05/28 22:38:35;;;;;;;4.22;2.25;;;;;;;15.13;47.23;100149.09;10508659;28;20074;-58
2023/05/28 22:43:37;;;;;;;3.45;1.85;;;;;;;14.97;47.59;100156.47;10505683;28;20036;-58
2023/05/28 22:48:39;;;;;;;3.08;1.80;;;;;;;14.85;47.72;100150.34;10508018;28;20051;-59
2023/05/28 22:53:41;;;;;;;3.55;2.00;;;;;;;14.67;47.87;100154.31;10509553;28;20048;-58
2023/05/28 22:58:43;;;;;;;2.65;1.58;;;;;;;14.70;48.15;100153.22;10504733;28;20557;-58
2023/05/28 23:03:45;;;;;;;3.40;1.70;;;;;;;14.73;48.03;100163.56;10509414;28;20165;-58
2023/05/28 23:08:47;;;;;;;3.05;1.70;;;;;;;14.57;48.34;100166.47;10505093;28;20511;-58
2023/05/28 23:13:48;;;;;;;3.60;1.60;;;;;;;14.42;48.74;100164.91;10508704;28;20059;-58
2023/05/28 23:18:51;;;;;;;4.25;1.65;;;;;;;14.30;49.16;100173.66;10508790;28;20067;-59